sensor_id;sensor_type;location;lat;lon;timestamp;P1;durP1;ratioP1;P2;durP2;ratioP2
45944;SDS011;31655;48.972;10.686;2023-11-21T00:00:44;13.93;;;4.60;;
45944;SDS011;31655;48.972;10.686;2023-11-21T00:03:10;15.70;;;5.57;;
45944;SDS011;31655;48.972;10.686;2023-11-21T00:05:39;8.98;;;4.30;;
45944;SDS011;31655;48.972;10.686;2023-11-21T00:08:06;16.33;;;4.72;;
45944;SDS011;31655;48.972;10.686;2023-11-21T00:10:32;9.75;;;5.10;;
45944;SDS011;31655;48.972;10.686;2023-11-21T00:12:58;12.13;;;4.88;;
45944;SDS011;31655;48.972;10.686;2023-11-21T00:15:23;9.13;;;3.75;;
45944;SDS011;31655;48.972;10.686;2023-11-21T00:17:49;11.73;;;3.75;;
45944;SDS011;31655;48.972;10.686;2023-11-21T00:20:14;9.15;;;3.55;;
45944;SDS011;31655;48.972;10.686;2023-11-21T00:22:40;8.43;;;3.60;;
45944;SDS011;31655;48.972;10.686;2023-11-21T00:25:06;6.63;;;3.53;;
45944;SDS011;31655;48.972;10.686;2023-11-21T00:27:34;5.80;;;3.65;;
45944;SDS011;31655;48.972;10.686;2023-11-21T00:30:03;7.00;;;2.83;;
45944;SDS011;31655;48.972;10.686;2023-11-21T00:32:33;7.78;;;2.58;;
45944;SDS011;31655;48.972;10.686;2023-11-21T00:35:00;4.28;;;1.92;;
45944;SDS011;31655;48.972;10.686;2023-11-21T00:37:26;3.95;;;2.13;;
45944;SDS011;31655;48.972;10.686;2023-11-21T00:39:51;6.00;;;2.10;;
45944;SDS011;31655;48.972;10.686;2023-11-21T00:42:17;6.78;;;2.00;;
45944;SDS011;31655;48.972;10.686;2023-11-21T00:44:42;8.48;;;2.10;;
45944;SDS011;31655;48.972;10.686;2023-11-21T00:47:08;6.38;;;1.92;;
45944;SDS011;31655;48.972;10.686;2023-11-21T00:49:33;5.53;;;2.00;;
45944;SDS011;31655;48.972;10.686;2023-11-21T00:51:59;10.73;;;2.53;;
45944;SDS011;31655;48.972;10.686;2023-11-21T00:54:26;5.72;;;2.35;;
45944;SDS011;31655;48.972;10.686;2023-11-21T00:56:52;2.95;;;1.65;;
45944;SDS011;31655;48.972;10.686;2023-11-21T00:59:18;5.00;;;2.15;;
45944;SDS011;31655;48.972;10.686;2023-11-21T01:01:43;5.88;;;1.20;;
45944;SDS011;31655;48.972;10.686;2023-11-21T01:04:09;1.90;;;1.13;;
45944;SDS011;31655;48.972;10.686;2023-11-21T01:06:35;3.10;;;1.30;;
45944;SDS011;31655;48.972;10.686;2023-11-21T01:09:00;4.72;;;1.30;;
45944;SDS011;31655;48.972;10.686;2023-11-21T01:11:26;2.42;;;1.50;;
45944;SDS011;31655;48.972;10.686;2023-11-21T01:13:52;5.28;;;1.70;;
45944;SDS011;31655;48.972;10.686;2023-11-21T01:16:18;3.50;;;1.58;;
45944;SDS011;31655;48.972;10.686;2023-11-21T01:18:43;4.53;;;1.95;;
45944;SDS011;31655;48.972;10.686;2023-11-21T01:21:09;3.53;;;1.55;;
45944;SDS011;31655;48.972;10.686;2023-11-21T01:23:35;8.50;;;2.47;;
45944;SDS011;31655;48.972;10.686;2023-11-21T01:26:00;9.75;;;2.03;;
45944;SDS011;31655;48.972;10.686;2023-11-21T01:28:26;3.10;;;1.38;;
45944;SDS011;31655;48.972;10.686;2023-11-21T01:30:51;2.90;;;1.80;;
45944;SDS011;31655;48.972;10.686;2023-11-21T01:33:18;6.70;;;1.92;;
45944;SDS011;31655;48.972;10.686;2023-11-21T01:35:43;6.72;;;2.15;;
45944;SDS011;31655;48.972;10.686;2023-11-21T01:38:11;5.20;;;1.90;;
45944;SDS011;31655;48.972;10.686;2023-11-21T01:40:37;8.43;;;2.25;;
45944;SDS011;31655;48.972;10.686;2023-11-21T01:43:02;12.43;;;2.88;;
45944;SDS011;31655;48.972;10.686;2023-11-21T01:45:28;10.30;;;2.97;;
45944;SDS011;31655;48.972;10.686;2023-11-21T01:47:56;8.45;;;3.42;;
45944;SDS011;31655;48.972;10.686;2023-11-21T01:50:23;6.78;;;3.53;;
45944;SDS011;31655;48.972;10.686;2023-11-21T01:52:49;8.10;;;3.50;;
45944;SDS011;31655;48.972;10.686;2023-11-21T01:55:16;8.20;;;4.28;;
45944;SDS011;31655;48.972;10.686;2023-11-21T01:57:46;11.30;;;4.35;;
45944;SDS011;31655;48.972;10.686;2023-11-21T02:00:11;16.58;;;4.50;;
45944;SDS011;31655;48.972;10.686;2023-11-21T02:02:47;8.70;;;4.50;;
45944;SDS011;31655;48.972;10.686;2023-11-21T02:05:17;6.82;;;4.25;;
45944;SDS011;31655;48.972;10.686;2023-11-21T02:07:44;12.55;;;4.22;;
45944;SDS011;31655;48.972;10.686;2023-11-21T02:10:12;7.10;;;3.42;;
45944;SDS011;31655;48.972;10.686;2023-11-21T02:12:41;5.57;;;2.72;;
45944;SDS011;31655;48.972;10.686;2023-11-21T02:15:10;11.93;;;2.75;;
45944;SDS011;31655;48.972;10.686;2023-11-21T02:17:44;8.57;;;2.47;;
45944;SDS011;31655;48.972;10.686;2023-11-21T02:20:16;6.82;;;2.67;;
45944;SDS011;31655;48.972;10.686;2023-11-21T02:25:22;10.52;;;2.45;;
45944;SDS011;31655;48.972;10.686;2023-11-21T02:27:55;12.90;;;3.60;;
45944;SDS011;31655;48.972;10.686;2023-11-21T02:30:21;10.20;;;2.92;;
45944;SDS011;31655;48.972;10.686;2023-11-21T02:32:48;12.27;;;2.83;;
45944;SDS011;31655;48.972;10.686;2023-11-21T02:35:14;9.65;;;2.85;;
45944;SDS011;31655;48.972;10.686;2023-11-21T02:37:40;12.05;;;2.80;;
45944;SDS011;31655;48.972;10.686;2023-11-21T02:40:07;6.32;;;2.75;;
45944;SDS011;31655;48.972;10.686;2023-11-21T02:42:34;10.88;;;3.67;;
45944;SDS011;31655;48.972;10.686;2023-11-21T02:45:00;19.58;;;4.32;;
45944;SDS011;31655;48.972;10.686;2023-11-21T02:47:26;12.73;;;3.38;;
45944;SDS011;31655;48.972;10.686;2023-11-21T02:49:51;8.85;;;3.42;;
45944;SDS011;31655;48.972;10.686;2023-11-21T02:52:17;20.13;;;4.60;;
45944;SDS011;31655;48.972;10.686;2023-11-21T02:54:44;16.25;;;5.50;;
45944;SDS011;31655;48.972;10.686;2023-11-21T02:57:09;10.60;;;4.13;;
45944;SDS011;31655;48.972;10.686;2023-11-21T02:59:35;23.70;;;12.73;;
45944;SDS011;31655;48.972;10.686;2023-11-21T03:02:01;114.22;;;50.97;;
45944;SDS011;31655;48.972;10.686;2023-11-21T03:04:26;28.70;;;16.55;;
45944;SDS011;31655;48.972;10.686;2023-11-21T03:06:52;42.97;;;26.75;;
45944;SDS011;31655;48.972;10.686;2023-11-21T03:09:17;22.15;;;14.38;;
45944;SDS011;31655;48.972;10.686;2023-11-21T03:11:43;12.02;;;5.05;;
45944;SDS011;31655;48.972;10.686;2023-11-21T03:14:08;17.63;;;5.53;;
45944;SDS011;31655;48.972;10.686;2023-11-21T03:16:34;13.43;;;6.03;;
45944;SDS011;31655;48.972;10.686;2023-11-21T03:19:00;15.52;;;4.85;;
45944;SDS011;31655;48.972;10.686;2023-11-21T03:21:26;11.70;;;5.03;;
45944;SDS011;31655;48.972;10.686;2023-11-21T03:23:51;14.43;;;5.43;;
45944;SDS011;31655;48.972;10.686;2023-11-21T03:26:17;15.25;;;6.10;;
45944;SDS011;31655;48.972;10.686;2023-11-21T03:28:43;15.68;;;5.70;;
45944;SDS011;31655;48.972;10.686;2023-11-21T03:31:08;10.48;;;5.05;;
45944;SDS011;31655;48.972;10.686;2023-11-21T03:33:34;13.45;;;5.22;;
45944;SDS011;31655;48.972;10.686;2023-11-21T03:36:00;13.80;;;4.78;;
45944;SDS011;31655;48.972;10.686;2023-11-21T03:38:26;12.48;;;5.28;;
45944;SDS011;31655;48.972;10.686;2023-11-21T03:40:51;9.20;;;4.88;;
45944;SDS011;31655;48.972;10.686;2023-11-21T03:43:18;61.85;;;31.48;;
45944;SDS011;31655;48.972;10.686;2023-11-21T03:45:44;118.57;;;52.15;;
45944;SDS011;31655;48.972;10.686;2023-11-21T03:48:09;79.38;;;39.40;;
45944;SDS011;31655;48.972;10.686;2023-11-21T03:50:37;134.05;;;49.67;;
45944;SDS011;31655;48.972;10.686;2023-11-21T03:53:03;43.33;;;16.67;;
45944;SDS011;31655;48.972;10.686;2023-11-21T03:55:29;49.15;;;18.92;;
45944;SDS011;31655;48.972;10.686;2023-11-21T03:57:56;34.33;;;9.95;;
45944;SDS011;31655;48.972;10.686;2023-11-21T04:00:22;76.80;;;28.95;;
45944;SDS011;31655;48.972;10.686;2023-11-21T04:02:48;44.03;;;15.77;;
45944;SDS011;31655;48.972;10.686;2023-11-21T04:05:16;25.67;;;9.13;;
45944;SDS011;31655;48.972;10.686;2023-11-21T04:07:42;38.88;;;14.82;;
45944;SDS011;31655;48.972;10.686;2023-11-21T04:10:08;23.10;;;9.63;;
45944;SDS011;31655;48.972;10.686;2023-11-21T04:12:37;134.90;;;54.10;;
45944;SDS011;31655;48.972;10.686;2023-11-21T04:15:03;47.03;;;20.30;;
45944;SDS011;31655;48.972;10.686;2023-11-21T04:17:29;86.00;;;38.13;;
45944;SDS011;31655;48.972;10.686;2023-11-21T04:19:54;108.65;;;53.72;;
45944;SDS011;31655;48.972;10.686;2023-11-21T04:22:20;75.57;;;34.47;;
45944;SDS011;31655;48.972;10.686;2023-11-21T04:24:46;45.63;;;23.35;;
45944;SDS011;31655;48.972;10.686;2023-11-21T04:27:11;48.60;;;23.85;;
45944;SDS011;31655;48.972;10.686;2023-11-21T04:29:38;69.18;;;28.42;;
45944;SDS011;31655;48.972;10.686;2023-11-21T04:32:03;66.95;;;30.80;;
45944;SDS011;31655;48.972;10.686;2023-11-21T04:34:29;92.00;;;37.15;;
45944;SDS011;31655;48.972;10.686;2023-11-21T04:36:56;71.35;;;31.75;;
45944;SDS011;31655;48.972;10.686;2023-11-21T04:39:22;41.53;;;20.20;;
45944;SDS011;31655;48.972;10.686;2023-11-21T04:41:47;25.38;;;13.95;;
45944;SDS011;31655;48.972;10.686;2023-11-21T04:44:13;38.83;;;15.40;;
45944;SDS011;31655;48.972;10.686;2023-11-21T04:46:38;17.42;;;6.55;;
45944;SDS011;31655;48.972;10.686;2023-11-21T04:49:04;24.13;;;12.52;;
45944;SDS011;31655;48.972;10.686;2023-11-21T04:51:29;26.00;;;10.73;;
45944;SDS011;31655;48.972;10.686;2023-11-21T04:53:56;21.60;;;9.40;;
45944;SDS011;31655;48.972;10.686;2023-11-21T04:56:21;26.63;;;12.23;;
45944;SDS011;31655;48.972;10.686;2023-11-21T04:58:47;26.38;;;12.50;;
45944;SDS011;31655;48.972;10.686;2023-11-21T05:01:12;29.23;;;16.52;;
45944;SDS011;31655;48.972;10.686;2023-11-21T05:03:38;26.40;;;11.57;;
45944;SDS011;31655;48.972;10.686;2023-11-21T05:06:04;63.28;;;26.50;;
45944;SDS011;31655;48.972;10.686;2023-11-21T05:08:30;24.25;;;12.88;;
45944;SDS011;31655;48.972;10.686;2023-11-21T05:10:56;29.83;;;13.52;;
45944;SDS011;31655;48.972;10.686;2023-11-21T05:13:22;19.63;;;8.05;;
45944;SDS011;31655;48.972;10.686;2023-11-21T05:15:52;17.52;;;7.70;;
45944;SDS011;31655;48.972;10.686;2023-11-21T05:18:19;19.40;;;7.82;;
45944;SDS011;31655;48.972;10.686;2023-11-21T05:20:44;14.38;;;7.03;;
45944;SDS011;31655;48.972;10.686;2023-11-21T05:23:10;12.90;;;6.45;;
45944;SDS011;31655;48.972;10.686;2023-11-21T05:25:36;28.17;;;16.10;;
45944;SDS011;31655;48.972;10.686;2023-11-21T05:28:01;20.83;;;10.25;;
45944;SDS011;31655;48.972;10.686;2023-11-21T05:30:28;15.10;;;5.90;;
45944;SDS011;31655;48.972;10.686;2023-11-21T05:32:53;14.02;;;5.82;;
45944;SDS011;31655;48.972;10.686;2023-11-21T05:35:19;19.65;;;8.18;;
45944;SDS011;31655;48.972;10.686;2023-11-21T05:37:44;14.38;;;6.45;;
45944;SDS011;31655;48.972;10.686;2023-11-21T05:40:11;17.23;;;6.45;;
45944;SDS011;31655;48.972;10.686;2023-11-21T05:42:38;19.83;;;6.55;;
45944;SDS011;31655;48.972;10.686;2023-11-21T05:45:05;18.25;;;6.35;;
45944;SDS011;31655;48.972;10.686;2023-11-21T05:47:44;11.90;;;6.30;;
45944;SDS011;31655;48.972;10.686;2023-11-21T05:50:11;12.93;;;6.32;;
45944;SDS011;31655;48.972;10.686;2023-11-21T05:52:39;18.10;;;7.47;;
45944;SDS011;31655;48.972;10.686;2023-11-21T05:55:06;21.52;;;9.77;;
45944;SDS011;31655;48.972;10.686;2023-11-21T05:57:35;21.05;;;7.55;;
45944;SDS011;31655;48.972;10.686;2023-11-21T06:00:05;16.20;;;6.50;;
45944;SDS011;31655;48.972;10.686;2023-11-21T06:02:50;14.95;;;8.43;;
45944;SDS011;31655;48.972;10.686;2023-11-21T06:05:19;19.25;;;7.60;;
45944;SDS011;31655;48.972;10.686;2023-11-21T06:07:48;18.23;;;7.30;;
45944;SDS011;31655;48.972;10.686;2023-11-21T06:10:14;25.38;;;8.63;;
45944;SDS011;31655;48.972;10.686;2023-11-21T06:12:40;23.58;;;11.00;;
45944;SDS011;31655;48.972;10.686;2023-11-21T06:15:08;15.50;;;7.75;;
45944;SDS011;31655;48.972;10.686;2023-11-21T06:17:35;14.60;;;5.60;;
45944;SDS011;31655;48.972;10.686;2023-11-21T06:20:01;15.93;;;7.22;;
45944;SDS011;31655;48.972;10.686;2023-11-21T06:22:33;14.00;;;6.70;;
45944;SDS011;31655;48.972;10.686;2023-11-21T06:25:03;14.30;;;6.72;;
45944;SDS011;31655;48.972;10.686;2023-11-21T06:27:33;15.52;;;7.70;;
45944;SDS011;31655;48.972;10.686;2023-11-21T06:30:01;16.35;;;6.47;;
45944;SDS011;31655;48.972;10.686;2023-11-21T06:32:27;18.80;;;6.03;;
45944;SDS011;31655;48.972;10.686;2023-11-21T06:34:54;23.20;;;6.55;;
45944;SDS011;31655;48.972;10.686;2023-11-21T06:37:20;23.35;;;6.78;;
45944;SDS011;31655;48.972;10.686;2023-11-21T06:39:48;15.45;;;7.10;;
45944;SDS011;31655;48.972;10.686;2023-11-21T06:42:14;21.45;;;6.43;;
45944;SDS011;31655;48.972;10.686;2023-11-21T06:44:40;18.05;;;7.68;;
45944;SDS011;31655;48.972;10.686;2023-11-21T06:47:06;17.30;;;7.72;;
45944;SDS011;31655;48.972;10.686;2023-11-21T06:49:32;17.00;;;7.95;;
45944;SDS011;31655;48.972;10.686;2023-11-21T06:51:57;22.50;;;7.68;;
45944;SDS011;31655;48.972;10.686;2023-11-21T06:54:23;16.90;;;8.35;;
45944;SDS011;31655;48.972;10.686;2023-11-21T06:56:49;19.98;;;7.20;;
45944;SDS011;31655;48.972;10.686;2023-11-21T06:59:15;16.85;;;7.53;;
45944;SDS011;31655;48.972;10.686;2023-11-21T07:01:41;14.65;;;6.57;;
45944;SDS011;31655;48.972;10.686;2023-11-21T07:04:06;18.23;;;7.03;;
45944;SDS011;31655;48.972;10.686;2023-11-21T07:06:33;18.58;;;6.65;;
45944;SDS011;31655;48.972;10.686;2023-11-21T07:08:59;23.17;;;6.95;;
45944;SDS011;31655;48.972;10.686;2023-11-21T07:11:26;17.10;;;6.95;;
45944;SDS011;31655;48.972;10.686;2023-11-21T07:13:52;12.50;;;6.07;;
45944;SDS011;31655;48.972;10.686;2023-11-21T07:16:18;22.10;;;7.20;;
45944;SDS011;31655;48.972;10.686;2023-11-21T07:18:44;14.65;;;6.25;;
45944;SDS011;31655;48.972;10.686;2023-11-21T07:21:09;14.35;;;6.57;;
45944;SDS011;31655;48.972;10.686;2023-11-21T07:23:37;20.92;;;6.07;;
45944;SDS011;31655;48.972;10.686;2023-11-21T07:26:02;14.38;;;5.43;;
45944;SDS011;31655;48.972;10.686;2023-11-21T07:28:31;11.68;;;5.82;;
45944;SDS011;31655;48.972;10.686;2023-11-21T07:30:57;11.65;;;4.88;;
45944;SDS011;31655;48.972;10.686;2023-11-21T07:33:22;7.75;;;3.95;;
45944;SDS011;31655;48.972;10.686;2023-11-21T07:35:48;12.30;;;3.92;;
45944;SDS011;31655;48.972;10.686;2023-11-21T07:38:13;3.70;;;2.92;;
45944;SDS011;31655;48.972;10.686;2023-11-21T07:40:39;6.80;;;3.50;;
45944;SDS011;31655;48.972;10.686;2023-11-21T07:43:04;6.15;;;3.22;;
45944;SDS011;31655;48.972;10.686;2023-11-21T07:45:30;6.95;;;2.83;;
45944;SDS011;31655;48.972;10.686;2023-11-21T07:47:56;8.20;;;3.47;;
45944;SDS011;31655;48.972;10.686;2023-11-21T07:50:22;7.32;;;2.65;;
45944;SDS011;31655;48.972;10.686;2023-11-21T07:52:48;6.30;;;2.63;;
45944;SDS011;31655;48.972;10.686;2023-11-21T07:55:14;8.45;;;3.47;;
45944;SDS011;31655;48.972;10.686;2023-11-21T07:57:40;13.02;;;4.75;;
45944;SDS011;31655;48.972;10.686;2023-11-21T08:00:06;6.53;;;3.50;;
45944;SDS011;31655;48.972;10.686;2023-11-21T08:02:34;5.90;;;3.40;;
45944;SDS011;31655;48.972;10.686;2023-11-21T08:04:59;9.95;;;3.78;;
45944;SDS011;31655;48.972;10.686;2023-11-21T08:07:25;8.25;;;4.13;;
45944;SDS011;31655;48.972;10.686;2023-11-21T08:09:51;8.27;;;3.83;;
45944;SDS011;31655;48.972;10.686;2023-11-21T08:12:17;6.75;;;3.78;;
45944;SDS011;31655;48.972;10.686;2023-11-21T08:14:43;7.70;;;4.10;;
45944;SDS011;31655;48.972;10.686;2023-11-21T08:17:09;7.10;;;3.83;;
45944;SDS011;31655;48.972;10.686;2023-11-21T08:19:35;5.93;;;3.55;;
45944;SDS011;31655;48.972;10.686;2023-11-21T08:22:01;7.40;;;4.03;;
45944;SDS011;31655;48.972;10.686;2023-11-21T08:24:28;9.07;;;4.00;;
45944;SDS011;31655;48.972;10.686;2023-11-21T08:26:53;8.98;;;4.85;;
45944;SDS011;31655;48.972;10.686;2023-11-21T08:29:19;7.40;;;3.53;;
45944;SDS011;31655;48.972;10.686;2023-11-21T08:31:45;4.93;;;3.30;;
45944;SDS011;31655;48.972;10.686;2023-11-21T08:34:12;5.85;;;3.50;;
45944;SDS011;31655;48.972;10.686;2023-11-21T08:36:44;8.65;;;3.10;;
45944;SDS011;31655;48.972;10.686;2023-11-21T08:39:10;9.20;;;4.13;;
45944;SDS011;31655;48.972;10.686;2023-11-21T08:41:36;11.15;;;4.65;;
45944;SDS011;31655;48.972;10.686;2023-11-21T08:44:01;6.53;;;4.28;;
45944;SDS011;31655;48.972;10.686;2023-11-21T08:46:31;6.45;;;3.97;;
45944;SDS011;31655;48.972;10.686;2023-11-21T08:48:57;10.50;;;4.20;;
45944;SDS011;31655;48.972;10.686;2023-11-21T08:51:22;7.00;;;3.88;;
45944;SDS011;31655;48.972;10.686;2023-11-21T08:53:48;8.90;;;4.35;;
45944;SDS011;31655;48.972;10.686;2023-11-21T08:56:13;6.95;;;4.05;;
45944;SDS011;31655;48.972;10.686;2023-11-21T08:58:39;5.28;;;4.03;;
45944;SDS011;31655;48.972;10.686;2023-11-21T09:01:06;6.75;;;3.97;;
45944;SDS011;31655;48.972;10.686;2023-11-21T09:03:32;7.85;;;4.68;;
45944;SDS011;31655;48.972;10.686;2023-11-21T09:05:59;9.63;;;5.80;;
45944;SDS011;31655;48.972;10.686;2023-11-21T09:08:25;6.53;;;3.80;;
45944;SDS011;31655;48.972;10.686;2023-11-21T09:10:50;8.02;;;4.80;;
45944;SDS011;31655;48.972;10.686;2023-11-21T09:13:17;8.23;;;4.65;;
45944;SDS011;31655;48.972;10.686;2023-11-21T09:15:43;7.63;;;4.95;;
45944;SDS011;31655;48.972;10.686;2023-11-21T09:18:11;8.95;;;5.05;;
45944;SDS011;31655;48.972;10.686;2023-11-21T09:20:40;9.20;;;4.28;;
45944;SDS011;31655;48.972;10.686;2023-11-21T09:23:06;5.13;;;3.95;;
45944;SDS011;31655;48.972;10.686;2023-11-21T09:25:32;5.07;;;4.00;;
45944;SDS011;31655;48.972;10.686;2023-11-21T09:27:57;6.65;;;4.00;;
45944;SDS011;31655;48.972;10.686;2023-11-21T09:30:23;7.93;;;4.15;;
45944;SDS011;31655;48.972;10.686;2023-11-21T09:32:49;6.75;;;3.42;;
45944;SDS011;31655;48.972;10.686;2023-11-21T09:35:15;5.88;;;4.13;;
45944;SDS011;31655;48.972;10.686;2023-11-21T09:37:43;5.65;;;3.65;;
45944;SDS011;31655;48.972;10.686;2023-11-21T09:40:10;5.32;;;3.33;;
45944;SDS011;31655;48.972;10.686;2023-11-21T09:42:39;4.68;;;3.67;;
45944;SDS011;31655;48.972;10.686;2023-11-21T09:47:51;3.53;;;3.20;;
45944;SDS011;31655;48.972;10.686;2023-11-21T09:50:18;5.65;;;4.20;;
45944;SDS011;31655;48.972;10.686;2023-11-21T09:52:49;3.25;;;2.70;;
45944;SDS011;31655;48.972;10.686;2023-11-21T09:55:22;4.53;;;2.92;;
45944;SDS011;31655;48.972;10.686;2023-11-21T09:57:52;3.83;;;2.97;;
45944;SDS011;31655;48.972;10.686;2023-11-21T10:00:20;4.28;;;2.80;;
45944;SDS011;31655;48.972;10.686;2023-11-21T10:02:48;3.33;;;2.67;;
45944;SDS011;31655;48.972;10.686;2023-11-21T10:05:14;2.90;;;2.60;;
45944;SDS011;31655;48.972;10.686;2023-11-21T10:07:42;5.10;;;3.17;;
45944;SDS011;31655;48.972;10.686;2023-11-21T10:10:10;5.45;;;2.65;;
45944;SDS011;31655;48.972;10.686;2023-11-21T10:12:35;4.47;;;2.90;;
45944;SDS011;31655;48.972;10.686;2023-11-21T10:15:02;4.68;;;2.80;;
45944;SDS011;31655;48.972;10.686;2023-11-21T10:17:31;2.67;;;2.47;;
45944;SDS011;31655;48.972;10.686;2023-11-21T10:20:06;4.97;;;3.10;;
45944;SDS011;31655;48.972;10.686;2023-11-21T10:22:37;4.25;;;2.83;;
45944;SDS011;31655;48.972;10.686;2023-11-21T10:25:06;3.15;;;2.05;;
45944;SDS011;31655;48.972;10.686;2023-11-21T10:27:33;4.63;;;2.55;;
45944;SDS011;31655;48.972;10.686;2023-11-21T10:30:00;2.38;;;2.15;;
45944;SDS011;31655;48.972;10.686;2023-11-21T10:32:29;3.55;;;2.30;;
45944;SDS011;31655;48.972;10.686;2023-11-21T10:34:58;2.72;;;2.30;;
45944;SDS011;31655;48.972;10.686;2023-11-21T10:37:25;3.05;;;2.50;;
45944;SDS011;31655;48.972;10.686;2023-11-21T10:39:56;6.72;;;2.35;;
45944;SDS011;31655;48.972;10.686;2023-11-21T10:42:23;3.60;;;2.00;;
45944;SDS011;31655;48.972;10.686;2023-11-21T10:44:49;2.17;;;1.67;;
45944;SDS011;31655;48.972;10.686;2023-11-21T10:47:15;2.33;;;2.00;;
45944;SDS011;31655;48.972;10.686;2023-11-21T10:49:44;2.47;;;2.20;;
45944;SDS011;31655;48.972;10.686;2023-11-21T10:52:12;2.78;;;1.75;;
45944;SDS011;31655;48.972;10.686;2023-11-21T10:54:42;2.95;;;1.60;;
45944;SDS011;31655;48.972;10.686;2023-11-21T10:57:08;1.63;;;1.52;;
45944;SDS011;31655;48.972;10.686;2023-11-21T10:59:35;2.03;;;1.60;;
45944;SDS011;31655;48.972;10.686;2023-11-21T11:02:02;4.57;;;1.63;;
45944;SDS011;31655;48.972;10.686;2023-11-21T11:04:45;2.03;;;1.80;;
45944;SDS011;31655;48.972;10.686;2023-11-21T11:07:13;4.88;;;1.80;;
45944;SDS011;31655;48.972;10.686;2023-11-21T11:09:41;2.85;;;1.55;;
45944;SDS011;31655;48.972;10.686;2023-11-21T11:12:07;1.60;;;1.50;;
45944;SDS011;31655;48.972;10.686;2023-11-21T11:14:34;2.15;;;1.42;;
45944;SDS011;31655;48.972;10.686;2023-11-21T11:17:01;2.15;;;1.60;;
45944;SDS011;31655;48.972;10.686;2023-11-21T11:19:30;3.10;;;1.65;;
45944;SDS011;31655;48.972;10.686;2023-11-21T11:24:52;4.03;;;2.08;;
45944;SDS011;31655;48.972;10.686;2023-11-21T11:27:37;3.90;;;2.45;;
45944;SDS011;31655;48.972;10.686;2023-11-21T11:30:25;5.32;;;3.20;;
45944;SDS011;31655;48.972;10.686;2023-11-21T11:33:07;6.68;;;3.33;;
45944;SDS011;31655;48.972;10.686;2023-11-21T11:35:48;3.30;;;2.80;;
45944;SDS011;31655;48.972;10.686;2023-11-21T11:40:55;5.38;;;3.08;;
45944;SDS011;31655;48.972;10.686;2023-11-21T11:43:24;8.13;;;4.35;;
45944;SDS011;31655;48.972;10.686;2023-11-21T11:45:51;2.95;;;2.40;;
45944;SDS011;31655;48.972;10.686;2023-11-21T11:48:20;5.10;;;3.08;;
45944;SDS011;31655;48.972;10.686;2023-11-21T11:51:06;4.80;;;3.63;;
45944;SDS011;31655;48.972;10.686;2023-11-21T11:53:40;2.47;;;1.77;;
45944;SDS011;31655;48.972;10.686;2023-11-21T11:58:52;4.05;;;2.10;;
45944;SDS011;31655;48.972;10.686;2023-11-21T12:01:22;3.53;;;2.00;;
45944;SDS011;31655;48.972;10.686;2023-11-21T12:06:42;1.95;;;1.75;;
45944;SDS011;31655;48.972;10.686;2023-11-21T12:09:29;4.65;;;1.90;;
45944;SDS011;31655;48.972;10.686;2023-11-21T12:11:55;4.25;;;2.00;;
45944;SDS011;31655;48.972;10.686;2023-11-21T12:14:24;2.47;;;1.38;;
45944;SDS011;31655;48.972;10.686;2023-11-21T12:16:50;1.05;;;0.70;;
45944;SDS011;31655;48.972;10.686;2023-11-21T12:19:22;0.70;;;0.70;;
45944;SDS011;31655;48.972;10.686;2023-11-21T12:21:48;0.80;;;0.50;;
45944;SDS011;31655;48.972;10.686;2023-11-21T12:24:13;9.60;;;4.63;;
45944;SDS011;31655;48.972;10.686;2023-11-21T12:26:41;2.60;;;2.05;;
45944;SDS011;31655;48.972;10.686;2023-11-21T12:29:07;0.40;;;0.40;;
45944;SDS011;31655;48.972;10.686;2023-11-21T12:31:33;0.40;;;0.40;;
45944;SDS011;31655;48.972;10.686;2023-11-21T12:34:02;0.40;;;0.40;;
45944;SDS011;31655;48.972;10.686;2023-11-21T12:36:29;0.50;;;0.50;;
45944;SDS011;31655;48.972;10.686;2023-11-21T12:38:55;0.30;;;0.30;;
45944;SDS011;31655;48.972;10.686;2023-11-21T12:41:21;0.60;;;0.57;;
45944;SDS011;31655;48.972;10.686;2023-11-21T12:43:47;0.75;;;0.60;;
45944;SDS011;31655;48.972;10.686;2023-11-21T12:46:13;1.15;;;0.50;;
45944;SDS011;31655;48.972;10.686;2023-11-21T12:48:43;1.65;;;0.45;;
45944;SDS011;31655;48.972;10.686;2023-11-21T12:51:10;0.85;;;0.50;;
45944;SDS011;31655;48.972;10.686;2023-11-21T12:53:40;0.55;;;0.55;;
45944;SDS011;31655;48.972;10.686;2023-11-21T12:56:07;0.90;;;0.80;;
45944;SDS011;31655;48.972;10.686;2023-11-21T12:58:38;0.82;;;0.63;;
45944;SDS011;31655;48.972;10.686;2023-11-21T13:01:05;0.70;;;0.70;;
45944;SDS011;31655;48.972;10.686;2023-11-21T13:03:36;1.20;;;1.00;;
45944;SDS011;31655;48.972;10.686;2023-11-21T13:06:02;1.08;;;0.68;;
45944;SDS011;31655;48.972;10.686;2023-11-21T13:08:30;0.55;;;0.55;;
45944;SDS011;31655;48.972;10.686;2023-11-21T13:10:58;1.25;;;0.75;;
45944;SDS011;31655;48.972;10.686;2023-11-21T13:13:24;0.70;;;0.70;;
45944;SDS011;31655;48.972;10.686;2023-11-21T13:15:59;0.80;;;0.80;;
45944;SDS011;31655;48.972;10.686;2023-11-21T13:18:26;1.45;;;0.90;;
45944;SDS011;31655;48.972;10.686;2023-11-21T13:20:56;0.88;;;0.80;;
45944;SDS011;31655;48.972;10.686;2023-11-21T13:23:24;0.82;;;0.82;;
45944;SDS011;31655;48.972;10.686;2023-11-21T13:25:50;1.92;;;1.20;;
45944;SDS011;31655;48.972;10.686;2023-11-21T13:28:16;1.58;;;1.10;;
45944;SDS011;31655;48.972;10.686;2023-11-21T13:30:45;2.03;;;1.00;;
45944;SDS011;31655;48.972;10.686;2023-11-21T13:33:11;0.85;;;0.85;;
45944;SDS011;31655;48.972;10.686;2023-11-21T13:35:42;1.73;;;1.13;;
45944;SDS011;31655;48.972;10.686;2023-11-21T13:38:16;3.60;;;1.08;;
45944;SDS011;31655;48.972;10.686;2023-11-21T13:40:46;2.05;;;1.35;;
45944;SDS011;31655;48.972;10.686;2023-11-21T13:43:19;2.47;;;1.30;;
45944;SDS011;31655;48.972;10.686;2023-11-21T13:45:47;2.45;;;1.73;;
45944;SDS011;31655;48.972;10.686;2023-11-21T13:48:17;1.30;;;1.20;;
45944;SDS011;31655;48.972;10.686;2023-11-21T13:50:50;1.15;;;1.05;;
45944;SDS011;31655;48.972;10.686;2023-11-21T13:53:34;1.83;;;1.40;;
45944;SDS011;31655;48.972;10.686;2023-11-21T13:56:02;1.67;;;1.30;;
45944;SDS011;31655;48.972;10.686;2023-11-21T13:58:28;1.23;;;1.15;;
45944;SDS011;31655;48.972;10.686;2023-11-21T14:01:21;2.58;;;1.75;;
45944;SDS011;31655;48.972;10.686;2023-11-21T14:04:00;2.28;;;2.08;;
45944;SDS011;31655;48.972;10.686;2023-11-21T14:06:36;3.25;;;1.98;;
45944;SDS011;31655;48.972;10.686;2023-11-21T14:09:12;2.42;;;2.10;;
45944;SDS011;31655;48.972;10.686;2023-11-21T14:11:47;5.05;;;2.60;;
45944;SDS011;31655;48.972;10.686;2023-11-21T14:14:21;5.40;;;2.72;;
45944;SDS011;31655;48.972;10.686;2023-11-21T14:16:49;4.78;;;2.40;;
45944;SDS011;31655;48.972;10.686;2023-11-21T14:19:14;2.55;;;2.28;;
45944;SDS011;31655;48.972;10.686;2023-11-21T14:21:43;2.83;;;2.53;;
45944;SDS011;31655;48.972;10.686;2023-11-21T14:24:10;3.97;;;2.72;;
45944;SDS011;31655;48.972;10.686;2023-11-21T14:26:38;5.18;;;3.30;;
45944;SDS011;31655;48.972;10.686;2023-11-21T14:29:07;6.05;;;3.40;;
45944;SDS011;31655;48.972;10.686;2023-11-21T14:31:34;6.82;;;4.20;;
45944;SDS011;31655;48.972;10.686;2023-11-21T14:34:00;6.63;;;3.72;;
45944;SDS011;31655;48.972;10.686;2023-11-21T14:36:29;4.53;;;3.90;;
45944;SDS011;31655;48.972;10.686;2023-11-21T14:38:54;7.15;;;5.45;;
45944;SDS011;31655;48.972;10.686;2023-11-21T14:41:20;6.07;;;4.10;;
45944;SDS011;31655;48.972;10.686;2023-11-21T14:43:46;7.65;;;3.75;;
45944;SDS011;31655;48.972;10.686;2023-11-21T14:46:14;7.45;;;4.53;;